LSV weather

Nellis Air Force Base
Las Vegas, Nevada, United States

Public forecast

Using degrees Fahrenheit for public forecast. Weather courtesy of forecast.io.

METAR (pilot weather report)

Retrieved 2019/07/19 06:58 UTC (5 minutes ago):

KLSV 190658Z AUTO 17006KT 10SM CLR 32/M01 A2977 RMK AO2 SLP052 T03241007

TAF (pilot weather forecast)

Retrieved 2019/07/19 07:48 UTC (0 seconds ago):

TAF KLSV 190700Z 1907/2013 VRB06KT 9999 SKC QNH2978INS BECMG 1917/1918 15010G18KT 9999 SKC QNH2968INS TEMPO 1920/2002 20015G25KT 520009 BECMG 2005/2006 VRB06KT 9999 SKC QNH2982INS TX41/1922Z TN27/1913Z